createdAt,value
2018-12-01T00:01:47.890Z,47.60
2018-12-01T00:04:17.884Z,49.70
2018-12-01T00:06:47.947Z,51.47
2018-12-01T00:09:17.941Z,48.43
2018-12-01T00:11:48.035Z,48.80
2018-12-01T00:14:18.044Z,49.73
2018-12-01T00:16:48.164Z,49.37
2018-12-01T00:19:18.170Z,50.30
2018-12-01T00:21:48.338Z,49.53
2018-12-01T00:24:18.356Z,51.47
2018-12-01T00:26:48.691Z,51.03
2018-12-01T00:29:18.730Z,50.37
2018-12-01T00:31:48.822Z,53.53
2018-12-01T00:34:18.868Z,54.70
2018-12-01T00:36:48.930Z,53.20
2018-12-01T00:39:18.969Z,52.53
2018-12-01T00:41:49.046Z,51.90
2018-12-01T00:44:19.120Z,52.10
2018-12-01T00:46:49.226Z,51.93
2018-12-01T00:49:19.230Z,50.73
2018-12-01T00:51:49.347Z,51.47
2018-12-01T00:54:19.358Z,53.40
2018-12-01T00:56:49.458Z,53.60
2018-12-01T00:59:19.472Z,51.97
2018-12-01T01:01:49.553Z,54.77
2018-12-01T01:04:19.631Z,53.30
2018-12-01T01:06:49.748Z,53.63
2018-12-01T01:09:19.791Z,53.30
2018-12-01T01:11:49.905Z,53.37
2018-12-01T01:14:19.900Z,53.97
2018-12-01T01:16:49.955Z,53.33
2018-12-01T01:19:19.977Z,53.17
2018-12-01T01:21:50.021Z,53.17
2018-12-01T01:24:20.080Z,52.93
2018-12-01T01:26:50.107Z,53.90
2018-12-01T01:29:20.176Z,55.13
2018-12-01T01:31:50.205Z,53.23
2018-12-01T01:34:20.215Z,55.83
2018-12-01T01:36:50.262Z,53.20
2018-12-01T01:39:20.349Z,52.53
2018-12-01T01:41:50.397Z,55.37
2018-12-01T01:44:20.460Z,54.23
2018-12-01T01:46:50.551Z,54.87
2018-12-01T01:49:20.553Z,55.80
2018-12-01T01:51:50.565Z,54.87
2018-12-01T01:54:20.562Z,56.53
2018-12-01T01:56:50.658Z,55.67
2018-12-01T01:59:20.723Z,53.83
2018-12-01T02:01:50.831Z,54.47
2018-12-01T02:04:21.021Z,55.03
2018-12-01T02:06:51.047Z,53.87
2018-12-01T02:09:21.125Z,52.57
2018-12-01T02:11:51.146Z,52.73
2018-12-01T02:14:21.172Z,50.80
2018-12-01T02:16:51.219Z,52.97
2018-12-01T02:19:21.200Z,52.53
2018-12-01T02:21:51.246Z,53.40
2018-12-01T02:24:21.261Z,52.20
2018-12-01T02:26:51.279Z,53.77
2018-12-01T02:29:21.327Z,51.23
2018-12-01T02:31:51.390Z,53.33
2018-12-01T02:34:21.439Z,54.40
2018-12-01T02:36:51.519Z,52.60
2018-12-01T02:39:21.585Z,51.20
2018-12-01T02:41:51.604Z,51.97
2018-12-01T02:45:31.244Z,50.60
2018-12-01T02:48:01.297Z,48.70
2018-12-01T02:50:31.289Z,50.97
2018-12-01T02:53:01.925Z,54.30
2018-12-01T02:55:31.983Z,55.00
2018-12-01T02:58:02.003Z,50.90
2018-12-01T03:00:32.117Z,50.73
2018-12-01T03:03:02.125Z,51.17
2018-12-01T03:05:32.210Z,51.10
2018-12-01T03:08:02.280Z,49.93
2018-12-01T03:10:32.272Z,49.10
2018-12-01T03:13:02.364Z,51.13
2018-12-01T03:15:32.423Z,50.43
2018-12-01T03:18:02.487Z,51.73
2018-12-01T03:20:32.509Z,52.27
2018-12-01T03:23:02.616Z,50.80
2018-12-01T03:25:32.690Z,52.13
2018-12-01T03:28:02.719Z,47.83
2018-12-01T03:30:32.781Z,50.30
2018-12-01T03:33:02.826Z,49.40
2018-12-01T03:35:33.143Z,49.37
2018-12-01T03:38:03.196Z,46.50
2018-12-01T03:40:38.291Z,49.17
2018-12-01T03:43:08.319Z,49.63
2018-12-01T03:45:38.401Z,44.40
2018-12-01T03:48:08.478Z,47.07
2018-12-01T03:50:38.509Z,47.10
2018-12-01T03:53:09.472Z,49.27
2018-12-01T03:55:39.507Z,46.83
2018-12-01T03:58:09.546Z,49.23
2018-12-01T04:00:39.535Z,45.63
2018-12-01T04:03:09.572Z,50.80
2018-12-01T04:05:39.599Z,49.67
2018-12-01T04:08:09.690Z,46.67
2018-12-01T04:10:39.629Z,49.27
2018-12-01T04:13:09.660Z,47.83
2018-12-01T04:15:39.653Z,49.10
2018-12-01T04:18:09.698Z,48.50
2018-12-01T04:20:39.649Z,48.33
2018-12-01T04:23:09.787Z,47.87
2018-12-01T04:25:39.846Z,46.07
2018-12-01T04:28:09.880Z,48.13
2018-12-01T04:30:39.847Z,45.43
2018-12-01T04:33:09.968Z,47.23
2018-12-01T04:35:39.995Z,47.07
2018-12-01T04:38:10.058Z,49.87
2018-12-01T04:40:40.056Z,45.37
2018-12-01T04:43:10.064Z,46.73
2018-12-01T04:45:40.088Z,43.77
2018-12-01T04:48:10.176Z,44.80
2018-12-01T04:50:40.208Z,42.93
2018-12-01T04:53:10.297Z,44.07
2018-12-01T04:55:40.318Z,41.40
2018-12-01T04:58:10.369Z,45.53
2018-12-01T05:00:40.443Z,43.97
2018-12-01T05:03:10.514Z,48.57
2018-12-01T05:05:40.582Z,51.10
2018-12-01T05:08:10.638Z,47.30
2018-12-01T05:10:40.640Z,47.80
2018-12-01T05:13:10.676Z,46.30
2018-12-01T05:15:40.682Z,47.63
2018-12-01T05:18:10.737Z,48.27
2018-12-01T05:20:40.781Z,46.93
2018-12-01T05:23:10.868Z,45.53
2018-12-01T05:25:40.898Z,48.33
2018-12-01T05:28:11.171Z,44.73
2018-12-01T05:30:41.239Z,43.00
2018-12-01T05:33:11.532Z,44.37
2018-12-01T05:35:41.577Z,44.83
2018-12-01T05:38:11.589Z,40.80
2018-12-01T05:40:41.644Z,43.97
2018-12-01T05:43:11.694Z,44.30
2018-12-01T05:45:41.745Z,42.07
2018-12-01T05:48:11.824Z,51.73
2018-12-01T05:50:41.839Z,44.40
2018-12-01T05:53:11.898Z,45.37
2018-12-01T05:55:41.916Z,41.73
2018-12-01T05:58:11.991Z,47.07
2018-12-01T06:00:41.977Z,43.97
2018-12-01T06:03:12.038Z,48.00
2018-12-01T06:05:42.087Z,43.83
2018-12-01T06:08:12.124Z,44.83
2018-12-01T06:10:42.165Z,43.73
2018-12-01T06:13:12.213Z,42.53
2018-12-01T06:15:42.248Z,43.20
2018-12-01T06:18:12.325Z,46.33
2018-12-01T06:20:42.330Z,44.83
2018-12-01T06:23:12.490Z,44.57
2018-12-01T06:25:42.660Z,43.77
2018-12-01T06:28:12.710Z,44.20
2018-12-01T06:30:42.748Z,43.53
2018-12-01T06:33:12.904Z,48.13
2018-12-01T06:35:43.077Z,38.33
2018-12-01T06:38:13.210Z,47.40
2018-12-01T06:40:43.257Z,49.07
2018-12-01T06:43:13.325Z,53.40
2018-12-01T06:45:43.572Z,46.13
2018-12-01T06:48:13.701Z,47.33
2018-12-01T06:50:44.046Z,47.07
2018-12-01T06:53:14.154Z,49.13
2018-12-01T06:55:44.274Z,46.87
2018-12-01T06:58:14.471Z,44.47
2018-12-01T07:00:44.724Z,45.00
2018-12-01T07:03:16.451Z,43.83
2018-12-01T07:05:47.053Z,46.10
2018-12-01T07:08:17.123Z,45.07
2018-12-01T07:10:47.526Z,43.43
2018-12-01T07:13:17.826Z,43.77
2018-12-01T07:15:47.971Z,48.50
2018-12-01T07:18:29.235Z,54.20
2018-12-01T07:20:59.274Z,51.73
2018-12-01T07:23:29.350Z,52.17
2018-12-01T07:25:59.341Z,52.07
2018-12-01T07:28:29.427Z,47.47
2018-12-01T07:30:59.471Z,48.30
2018-12-01T07:33:29.539Z,42.93
2018-12-01T07:35:59.565Z,44.03
2018-12-01T07:38:29.565Z,40.60
2018-12-01T07:40:59.567Z,42.37
2018-12-01T07:43:29.634Z,43.13
2018-12-01T07:45:59.645Z,41.10
2018-12-01T07:48:29.705Z,42.17
2018-12-01T07:50:59.785Z,42.37
2018-12-01T07:53:29.805Z,40.43
2018-12-01T07:55:59.882Z,41.67
2018-12-01T07:58:29.869Z,38.47
2018-12-01T08:01:00.245Z,40.97
2018-12-01T08:03:30.296Z,39.67
2018-12-01T08:06:00.303Z,39.70
2018-12-01T08:08:30.548Z,38.17
2018-12-01T08:11:00.540Z,39.97
2018-12-01T08:13:30.586Z,39.73
2018-12-01T08:16:00.602Z,40.50
2018-12-01T08:18:31.135Z,39.43
2018-12-01T08:21:01.094Z,39.90
2018-12-01T08:23:31.146Z,39.33
2018-12-01T08:26:01.202Z,38.03
2018-12-01T08:28:31.808Z,40.73
2018-12-01T08:31:02.090Z,39.27
2018-12-01T08:33:32.093Z,37.57
2018-12-01T08:36:02.214Z,36.47
2018-12-01T08:38:32.425Z,32.77
2018-12-01T08:41:02.665Z,35.97
2018-12-01T08:43:32.816Z,33.63
2018-12-01T08:46:02.867Z,32.87
2018-12-01T08:48:32.943Z,31.67
2018-12-01T08:51:02.953Z,35.30
2018-12-01T08:53:33.821Z,34.90
2018-12-01T08:56:03.857Z,33.90
2018-12-01T08:58:33.942Z,31.67
2018-12-01T09:01:03.964Z,32.97
2018-12-01T09:03:34.006Z,31.93
2018-12-01T09:06:04.032Z,31.30
2018-12-01T09:08:34.107Z,30.93
2018-12-01T09:11:04.129Z,28.73
2018-12-01T09:13:34.303Z,30.43
2018-12-01T09:16:04.396Z,29.07
2018-12-01T09:18:34.505Z,27.97
2018-12-01T09:21:04.780Z,24.77
2018-12-01T09:23:34.769Z,22.63
2018-12-01T09:26:04.895Z,19.67
2018-12-01T09:28:34.901Z,18.93
2018-12-01T09:31:04.984Z,18.27
2018-12-01T09:33:34.974Z,18.13
2018-12-01T09:36:05.039Z,18.23
2018-12-01T09:38:35.079Z,18.17
2018-12-01T09:41:05.197Z,16.33
2018-12-01T09:43:35.218Z,16.00
2018-12-01T09:46:05.285Z,15.87
2018-12-01T09:48:35.330Z,16.60
2018-12-01T09:51:06.147Z,17.60
2018-12-01T09:53:36.169Z,16.10
2018-12-01T09:56:06.219Z,16.10
2018-12-01T09:58:36.353Z,17.03
2018-12-01T10:01:06.437Z,17.83
2018-12-01T10:03:36.459Z,16.43
2018-12-01T10:06:06.555Z,16.97
2018-12-01T10:08:36.669Z,16.67
2018-12-01T10:11:06.869Z,16.40
2018-12-01T10:13:36.915Z,15.97
2018-12-01T10:16:07.097Z,16.80
2018-12-01T10:18:37.109Z,16.23
2018-12-01T10:21:07.171Z,16.50
2018-12-01T10:23:37.190Z,14.97
2018-12-01T10:26:07.324Z,12.90
2018-12-01T10:28:37.511Z,10.13
2018-12-01T10:31:07.545Z,10.57
2018-12-01T10:33:37.537Z,9.67
2018-12-01T10:36:07.552Z,9.37
2018-12-01T10:38:37.573Z,9.10
2018-12-01T10:41:07.563Z,8.90
2018-12-01T10:43:37.981Z,7.27
2018-12-01T10:46:08.116Z,6.30
2018-12-01T10:48:38.196Z,6.17
2018-12-01T10:51:08.338Z,5.50
2018-12-01T10:53:38.552Z,5.37
2018-12-01T10:56:08.798Z,5.43
2018-12-01T10:58:39.161Z,5.37
2018-12-01T11:01:14.464Z,4.20
2018-12-01T11:03:47.902Z,4.37
2018-12-01T11:06:19.376Z,4.03
2018-12-01T11:08:50.235Z,4.10
2018-12-01T11:11:20.318Z,4.13
2018-12-01T11:13:50.410Z,4.13
2018-12-01T11:16:20.714Z,3.80
2018-12-01T11:18:51.030Z,4.43
2018-12-01T11:21:21.064Z,3.90
2018-12-01T11:23:51.150Z,4.00
2018-12-01T11:26:21.780Z,4.40
2018-12-01T11:28:52.502Z,4.83
2018-12-01T11:31:22.510Z,4.27
2018-12-01T11:33:52.662Z,4.20
2018-12-01T11:36:22.797Z,4.07
2018-12-01T11:38:52.795Z,3.53
2018-12-01T11:41:23.037Z,3.13
2018-12-01T11:43:53.117Z,2.77
2018-12-01T11:46:23.258Z,2.73
2018-12-01T11:48:53.320Z,2.53
2018-12-01T11:51:23.467Z,2.40
2018-12-01T11:53:53.607Z,2.20
2018-12-01T11:56:23.620Z,2.57
2018-12-01T11:58:53.631Z,2.40
2018-12-01T12:01:24.130Z,2.87
2018-12-01T12:03:54.245Z,2.33
2018-12-01T12:06:24.257Z,2.80
2018-12-01T12:08:54.366Z,2.37
2018-12-01T12:11:24.844Z,2.80
2018-12-01T12:13:54.977Z,2.60
2018-12-01T12:16:25.107Z,2.70
2018-12-01T12:18:55.860Z,2.17
2018-12-01T12:21:25.989Z,2.10
2018-12-01T12:23:58.878Z,2.40
2018-12-01T12:26:28.930Z,2.27
2018-12-01T12:29:00.266Z,2.00
2018-12-01T12:31:31.261Z,2.50
2018-12-01T12:34:01.971Z,2.27
2018-12-01T12:36:31.939Z,1.80
2018-12-01T12:39:01.939Z,2.20
2018-12-01T12:41:31.937Z,2.53
2018-12-01T12:44:02.021Z,2.43
2018-12-01T12:46:32.084Z,2.60
2018-12-01T12:49:02.130Z,2.07
2018-12-01T12:51:32.137Z,2.10
2018-12-01T12:54:02.193Z,2.43
2018-12-01T12:56:32.306Z,3.10
2018-12-01T12:59:02.338Z,2.63
2018-12-01T13:01:32.445Z,1.83
2018-12-01T13:04:02.626Z,2.13
2018-12-01T13:06:32.685Z,1.97
2018-12-01T13:09:02.899Z,2.00
2018-12-01T13:11:32.925Z,2.00
2018-12-01T13:14:03.031Z,2.17
2018-12-01T13:16:34.129Z,1.83
2018-12-01T13:19:04.982Z,2.07
2018-12-01T13:21:35.153Z,2.20
2018-12-01T13:24:05.553Z,2.50
2018-12-01T13:26:35.534Z,2.73
2018-12-01T13:29:05.660Z,2.60
2018-12-01T13:31:35.701Z,2.73
2018-12-01T13:34:05.937Z,2.53
2018-12-01T13:36:36.001Z,2.73
2018-12-01T13:39:09.371Z,3.03
2018-12-01T13:41:39.437Z,2.97
2018-12-01T13:44:09.545Z,2.87
2018-12-01T13:46:40.215Z,2.83
2018-12-01T13:49:10.326Z,9.47
2018-12-01T13:51:40.343Z,2.80
2018-12-01T13:54:10.397Z,3.53
2018-12-01T13:56:40.532Z,3.33
2018-12-01T13:59:10.583Z,3.33
2018-12-01T14:01:40.628Z,3.80
2018-12-01T14:04:10.662Z,4.20
2018-12-01T14:06:40.622Z,3.73
2018-12-01T14:09:10.715Z,4.20
2018-12-01T14:11:40.827Z,6.60
2018-12-01T14:14:10.862Z,7.53
2018-12-01T14:16:40.894Z,4.77
2018-12-01T14:19:10.953Z,4.60
2018-12-01T14:21:40.958Z,4.10
2018-12-01T14:24:11.052Z,3.77
2018-12-01T14:26:41.234Z,4.20
2018-12-01T14:29:11.710Z,4.00
2018-12-01T14:31:41.751Z,4.70
2018-12-01T14:34:11.850Z,4.37
2018-12-01T14:36:42.048Z,4.83
2018-12-01T14:39:12.207Z,4.60
2018-12-01T14:41:42.392Z,5.20
2018-12-01T14:44:12.649Z,4.70
2018-12-01T14:46:42.752Z,5.77
2018-12-01T14:49:12.834Z,4.70
2018-12-01T14:51:42.901Z,5.13
2018-12-01T14:54:13.024Z,5.30
2018-12-01T14:56:43.200Z,5.27
2018-12-01T14:59:13.258Z,5.47
2018-12-01T15:01:45.029Z,6.13
2018-12-01T15:04:15.175Z,6.20
2018-12-01T15:06:45.222Z,7.00
2018-12-01T15:09:15.301Z,7.40
2018-12-01T15:11:45.382Z,7.90
2018-12-01T15:14:15.452Z,8.17
2018-12-01T15:16:45.521Z,8.10
2018-12-01T15:19:15.587Z,10.00
2018-12-01T15:21:46.008Z,8.37
2018-12-01T15:24:16.295Z,8.73
2018-12-01T15:26:46.346Z,9.53
2018-12-01T15:29:16.526Z,10.43
2018-12-01T15:31:46.761Z,10.27
2018-12-01T15:34:16.957Z,9.63
2018-12-01T15:36:47.145Z,9.37
2018-12-01T15:39:27.509Z,10.77
2018-12-01T15:41:57.662Z,11.00
2018-12-01T15:44:27.867Z,11.20
2018-12-01T15:46:57.961Z,11.33
2018-12-01T15:49:28.230Z,15.77
2018-12-01T15:51:58.373Z,12.53
2018-12-01T15:54:28.488Z,13.50
2018-12-01T15:56:58.633Z,11.80
2018-12-01T15:59:28.847Z,11.80
2018-12-01T16:01:59.002Z,12.50
2018-12-01T16:04:29.053Z,12.57
2018-12-01T16:06:59.096Z,12.27
2018-12-01T16:09:29.206Z,12.53
2018-12-01T16:11:59.249Z,12.50
2018-12-01T16:14:29.394Z,11.73
2018-12-01T16:16:59.452Z,12.43
2018-12-01T16:19:29.466Z,12.53
2018-12-01T16:21:59.612Z,11.83
2018-12-01T16:24:30.150Z,11.10
2018-12-01T16:27:01.454Z,11.80
2018-12-01T16:29:31.564Z,11.60
2018-12-01T16:32:01.602Z,11.50
2018-12-01T16:34:31.938Z,12.13
2018-12-01T16:37:02.039Z,11.40
2018-12-01T16:39:32.143Z,11.50
2018-12-01T16:42:07.274Z,11.63
2018-12-01T16:44:37.439Z,11.27
2018-12-01T16:47:07.500Z,11.80
2018-12-01T16:49:37.680Z,11.63
2018-12-01T16:52:07.801Z,11.13
2018-12-01T16:54:37.819Z,12.77
2018-12-01T16:57:07.924Z,11.83
2018-12-01T16:59:37.977Z,14.00
2018-12-01T17:02:08.019Z,12.27
2018-12-01T17:04:38.200Z,12.50
2018-12-01T17:07:08.228Z,11.77
2018-12-01T17:09:38.506Z,12.87
2018-12-01T17:12:08.592Z,12.13
2018-12-01T17:14:38.713Z,11.93
2018-12-01T17:17:09.199Z,11.80
2018-12-01T17:19:40.466Z,12.70
2018-12-01T17:22:10.742Z,12.70
2018-12-01T17:24:40.806Z,12.53
2018-12-01T17:27:10.828Z,13.13
2018-12-01T17:29:40.896Z,14.03
2018-12-01T17:32:10.986Z,13.87
2018-12-01T17:34:41.124Z,13.47
2018-12-01T17:37:11.206Z,16.30
2018-12-01T17:39:41.338Z,14.77
2018-12-01T17:42:11.466Z,14.90
2018-12-01T17:44:41.562Z,14.43
2018-12-01T17:47:11.651Z,15.67
2018-12-01T17:49:41.863Z,16.10
2018-12-01T17:52:11.937Z,16.00
2018-12-01T17:54:42.311Z,16.00
2018-12-01T17:57:12.445Z,16.10
2018-12-01T17:59:42.542Z,16.63
2018-12-01T18:02:12.584Z,15.20
2018-12-01T18:04:42.692Z,15.20
2018-12-01T18:07:12.880Z,15.73
2018-12-01T18:09:43.136Z,15.13
2018-12-01T18:12:13.261Z,14.10
2018-12-01T18:14:44.721Z,16.43
2018-12-01T18:17:15.222Z,14.97
2018-12-01T18:19:45.506Z,15.07
2018-12-01T18:22:15.711Z,16.50
2018-12-01T18:24:45.756Z,15.20
2018-12-01T18:27:16.139Z,15.13
2018-12-01T18:29:46.474Z,15.53
2018-12-01T18:32:16.617Z,15.50
2018-12-01T18:34:46.718Z,15.90
2018-12-01T18:37:16.828Z,16.67
2018-12-01T18:39:47.010Z,15.53
2018-12-01T18:42:17.129Z,15.17
2018-12-01T18:44:47.210Z,14.67
2018-12-01T18:47:17.460Z,15.60
2018-12-01T18:49:47.720Z,15.73
2018-12-01T18:52:17.800Z,14.37
2018-12-01T18:54:47.882Z,15.83
2018-12-01T18:57:17.904Z,16.30
2018-12-01T18:59:48.101Z,16.43
2018-12-01T19:02:18.477Z,15.37
2018-12-01T19:04:49.240Z,15.77
2018-12-01T19:07:21.485Z,17.33
2018-12-01T19:09:51.555Z,16.37
2018-12-01T19:12:22.262Z,17.63
2018-12-01T19:14:54.004Z,16.00
2018-12-01T19:17:26.262Z,16.67
2018-12-01T19:19:59.114Z,15.73
2018-12-01T19:22:29.272Z,15.37
2018-12-01T19:25:01.080Z,15.93
2018-12-01T19:27:30.152Z,15.20
2018-12-01T19:30:05.060Z,15.43
2018-12-01T19:32:30.410Z,15.00
2018-12-01T19:35:00.563Z,16.67
2018-12-01T19:37:32.697Z,16.30
2018-12-01T19:40:04.671Z,16.17
2018-12-01T19:42:34.733Z,16.60
2018-12-01T19:45:06.655Z,18.17
2018-12-01T19:47:36.678Z,17.83
2018-12-01T19:50:17.813Z,17.63
2018-12-01T19:52:49.895Z,16.10
2018-12-01T19:55:23.631Z,17.33
2018-12-01T19:57:54.420Z,17.83
2018-12-01T20:00:26.698Z,17.87
2018-12-01T20:02:58.719Z,17.83
2018-12-01T20:05:28.773Z,17.50
2018-12-01T20:07:58.857Z,17.63
2018-12-01T20:14:09.655Z,17.87
2018-12-01T20:16:44.969Z,18.13
2018-12-01T20:19:15.055Z,19.70
2018-12-01T20:21:45.133Z,17.67
2018-12-01T20:24:15.601Z,17.23
2018-12-01T20:26:45.745Z,17.70
2018-12-01T20:29:15.844Z,18.77
2018-12-01T20:31:45.878Z,18.63
2018-12-01T20:34:16.351Z,16.67
2018-12-01T20:36:50.324Z,17.80
2018-12-01T20:39:23.645Z,18.63
2018-12-01T20:41:53.753Z,18.00
2018-12-01T20:44:23.786Z,18.47
2018-12-01T20:46:53.900Z,19.10
2018-12-01T20:49:23.981Z,18.93
2018-12-01T20:51:54.045Z,19.03
2018-12-01T20:54:44.851Z,20.60
2018-12-01T20:57:21.360Z,19.73
2018-12-01T20:59:51.447Z,21.33
2018-12-01T21:02:22.150Z,19.87
2018-12-01T21:04:52.248Z,20.67
2018-12-01T21:07:22.263Z,21.17
2018-12-01T21:09:52.809Z,21.17
2018-12-01T21:12:22.920Z,22.03
2018-12-01T21:14:53.016Z,21.70
2018-12-01T21:17:23.090Z,23.20
2018-12-01T21:19:53.210Z,23.30
2018-12-01T21:22:23.265Z,21.33
2018-12-01T21:24:53.424Z,22.23
2018-12-01T21:27:23.494Z,22.73
2018-12-01T21:29:54.052Z,22.67
2018-12-01T21:32:24.014Z,22.50
2018-12-01T21:34:54.035Z,23.07
2018-12-01T21:37:24.210Z,23.67
2018-12-01T21:39:54.318Z,22.37
2018-12-01T21:42:24.405Z,21.50
2018-12-01T21:44:54.759Z,21.57
2018-12-01T21:47:24.834Z,21.30
2018-12-01T21:49:54.860Z,21.37
2018-12-01T21:52:24.876Z,20.50
2018-12-01T21:54:54.900Z,20.37
2018-12-01T21:57:24.960Z,20.70
2018-12-01T21:59:55.000Z,20.93
2018-12-01T22:02:25.045Z,20.07
2018-12-01T22:04:55.105Z,19.67
2018-12-01T22:07:25.186Z,19.30
2018-12-01T22:09:55.151Z,19.07
2018-12-01T22:12:25.213Z,18.57
2018-12-01T22:14:55.248Z,19.10
2018-12-01T22:17:25.326Z,19.23
2018-12-01T22:19:55.360Z,20.37
2018-12-01T22:22:25.430Z,20.27
2018-12-01T22:24:55.479Z,20.27
2018-12-01T22:27:25.583Z,19.53
2018-12-01T22:29:55.622Z,19.27
2018-12-01T22:32:25.865Z,19.27
2018-12-01T22:34:56.342Z,18.57
2018-12-01T22:37:26.410Z,19.43
2018-12-01T22:39:56.640Z,19.27
2018-12-01T22:42:26.741Z,20.13
2018-12-01T22:44:56.845Z,19.67
2018-12-01T22:47:26.886Z,20.17
2018-12-01T22:49:57.271Z,20.73
2018-12-01T22:52:27.316Z,20.03
2018-12-01T22:54:57.368Z,19.97
2018-12-01T22:57:27.481Z,19.43
2018-12-01T22:59:57.528Z,20.47
2018-12-01T23:02:27.754Z,19.67
2018-12-01T23:04:57.840Z,20.10
2018-12-01T23:07:28.254Z,21.50
2018-12-01T23:09:58.252Z,20.17
2018-12-01T23:12:28.339Z,22.40
2018-12-01T23:14:58.376Z,21.60
2018-12-01T23:17:28.517Z,20.07
2018-12-01T23:19:58.517Z,20.43
2018-12-01T23:22:28.547Z,19.37
2018-12-01T23:24:58.903Z,19.83
2018-12-01T23:27:29.006Z,19.93
2018-12-01T23:29:59.048Z,18.80
2018-12-01T23:32:29.118Z,18.73
2018-12-01T23:34:59.161Z,18.20
2018-12-01T23:37:29.200Z,18.07
2018-12-01T23:39:59.234Z,18.20
2018-12-01T23:42:29.313Z,17.53
2018-12-01T23:44:59.329Z,17.63
2018-12-01T23:47:29.641Z,18.03
2018-12-01T23:49:59.642Z,17.53
2018-12-01T23:52:29.669Z,17.37
2018-12-01T23:54:59.715Z,17.37
2018-12-01T23:57:29.788Z,16.80
2018-12-01T23:59:59.811Z,16.37
